sensor_id;sensor_type;location;lat;lon;timestamp;temperature;humidity
13998;DHT22;7074;51.508;7.018;2023-09-07T00:01:59;20.90;99.90
13998;DHT22;7074;51.508;7.018;2023-09-07T00:04:26;20.90;99.90
13998;DHT22;7074;51.508;7.018;2023-09-07T00:06:55;20.90;99.90
13998;DHT22;7074;51.508;7.018;2023-09-07T00:09:22;20.90;99.90
13998;DHT22;7074;51.508;7.018;2023-09-07T00:11:50;20.90;99.90
13998;DHT22;7074;51.508;7.018;2023-09-07T00:14:17;20.80;99.90
13998;DHT22;7074;51.508;7.018;2023-09-07T00:16:44;20.80;99.90
13998;DHT22;7074;51.508;7.018;2023-09-07T00:19:11;20.70;99.90
13998;DHT22;7074;51.508;7.018;2023-09-07T00:21:38;20.80;99.90
13998;DHT22;7074;51.508;7.018;2023-09-07T00:24:06;20.70;99.90
13998;DHT22;7074;51.508;7.018;2023-09-07T00:26:33;20.60;99.90
13998;DHT22;7074;51.508;7.018;2023-09-07T00:29:01;20.70;99.90
13998;DHT22;7074;51.508;7.018;2023-09-07T00:31:28;20.60;99.90
13998;DHT22;7074;51.508;7.018;2023-09-07T00:33:55;20.50;99.90
13998;DHT22;7074;51.508;7.018;2023-09-07T00:36:22;20.50;99.90
13998;DHT22;7074;51.508;7.018;2023-09-07T00:38:49;20.50;99.90
13998;DHT22;7074;51.508;7.018;2023-09-07T00:41:18;20.50;99.90
13998;DHT22;7074;51.508;7.018;2023-09-07T00:43:45;20.50;99.90
13998;DHT22;7074;51.508;7.018;2023-09-07T00:46:13;20.40;99.90
13998;DHT22;7074;51.508;7.018;2023-09-07T00:48:40;20.40;99.90
13998;DHT22;7074;51.508;7.018;2023-09-07T00:51:08;20.40;99.90
13998;DHT22;7074;51.508;7.018;2023-09-07T00:53:38;20.40;99.90
13998;DHT22;7074;51.508;7.018;2023-09-07T00:56:05;20.50;99.90
13998;DHT22;7074;51.508;7.018;2023-09-07T00:58:36;20.50;99.90
13998;DHT22;7074;51.508;7.018;2023-09-07T01:01:03;20.50;99.90
13998;DHT22;7074;51.508;7.018;2023-09-07T01:03:31;20.50;99.90
13998;DHT22;7074;51.508;7.018;2023-09-07T01:06:03;20.50;99.90
13998;DHT22;7074;51.508;7.018;2023-09-07T01:08:35;20.50;99.90
13998;DHT22;7074;51.508;7.018;2023-09-07T01:11:12;20.40;99.90
13998;DHT22;7074;51.508;7.018;2023-09-07T01:13:42;20.40;99.90
13998;DHT22;7074;51.508;7.018;2023-09-07T01:16:09;20.30;99.90
13998;DHT22;7074;51.508;7.018;2023-09-07T01:18:37;20.30;99.90
13998;DHT22;7074;51.508;7.018;2023-09-07T01:21:08;20.30;99.90
13998;DHT22;7074;51.508;7.018;2023-09-07T01:23:38;20.20;99.90
13998;DHT22;7074;51.508;7.018;2023-09-07T01:26:07;20.10;99.90
13998;DHT22;7074;51.508;7.018;2023-09-07T01:28:34;20.00;99.90
13998;DHT22;7074;51.508;7.018;2023-09-07T01:31:03;19.90;99.90
13998;DHT22;7074;51.508;7.018;2023-09-07T01:33:30;19.90;99.90
13998;DHT22;7074;51.508;7.018;2023-09-07T01:35:58;19.90;99.90
13998;DHT22;7074;51.508;7.018;2023-09-07T01:38:25;19.90;99.90
13998;DHT22;7074;51.508;7.018;2023-09-07T01:40:54;19.90;99.90
13998;DHT22;7074;51.508;7.018;2023-09-07T01:43:21;19.90;99.90
13998;DHT22;7074;51.508;7.018;2023-09-07T01:45:48;19.80;99.90
13998;DHT22;7074;51.508;7.018;2023-09-07T01:48:15;19.80;99.90
13998;DHT22;7074;51.508;7.018;2023-09-07T01:50:42;19.80;99.90
13998;DHT22;7074;51.508;7.018;2023-09-07T01:53:09;19.80;99.90
13998;DHT22;7074;51.508;7.018;2023-09-07T01:55:36;19.80;99.90
13998;DHT22;7074;51.508;7.018;2023-09-07T01:58:05;19.80;99.90
13998;DHT22;7074;51.508;7.018;2023-09-07T02:00:36;19.80;99.90
13998;DHT22;7074;51.508;7.018;2023-09-07T02:03:04;19.80;99.90
13998;DHT22;7074;51.508;7.018;2023-09-07T02:05:31;19.80;99.90
13998;DHT22;7074;51.508;7.018;2023-09-07T02:07:59;19.80;99.90
13998;DHT22;7074;51.508;7.018;2023-09-07T02:10:26;19.80;99.90
13998;DHT22;7074;51.508;7.018;2023-09-07T02:12:53;19.80;99.90
13998;DHT22;7074;51.508;7.018;2023-09-07T02:15:24;19.80;99.90
13998;DHT22;7074;51.508;7.018;2023-09-07T02:17:51;19.80;99.90
13998;DHT22;7074;51.508;7.018;2023-09-07T02:20:20;19.70;99.90
13998;DHT22;7074;51.508;7.018;2023-09-07T02:22:47;19.80;99.90
13998;DHT22;7074;51.508;7.018;2023-09-07T02:25:15;19.80;99.90
13998;DHT22;7074;51.508;7.018;2023-09-07T02:27:42;19.80;99.90
13998;DHT22;7074;51.508;7.018;2023-09-07T02:30:09;19.60;99.90
13998;DHT22;7074;51.508;7.018;2023-09-07T02:32:40;19.60;99.90
13998;DHT22;7074;51.508;7.018;2023-09-07T02:35:08;19.50;99.90
13998;DHT22;7074;51.508;7.018;2023-09-07T02:37:37;19.50;99.90
13998;DHT22;7074;51.508;7.018;2023-09-07T02:40:06;19.50;99.90
13998;DHT22;7074;51.508;7.018;2023-09-07T02:42:35;19.40;99.90
13998;DHT22;7074;51.508;7.018;2023-09-07T02:45:03;19.50;99.90
13998;DHT22;7074;51.508;7.018;2023-09-07T02:47:30;19.50;99.90
13998;DHT22;7074;51.508;7.018;2023-09-07T02:49:58;19.50;99.90
13998;DHT22;7074;51.508;7.018;2023-09-07T02:52:25;19.40;99.90
13998;DHT22;7074;51.508;7.018;2023-09-07T02:54:53;19.40;99.90
13998;DHT22;7074;51.508;7.018;2023-09-07T02:57:20;19.40;99.90
13998;DHT22;7074;51.508;7.018;2023-09-07T02:59:47;19.30;99.90
13998;DHT22;7074;51.508;7.018;2023-09-07T03:02:14;19.30;99.90
13998;DHT22;7074;51.508;7.018;2023-09-07T03:04:41;19.30;99.90
13998;DHT22;7074;51.508;7.018;2023-09-07T03:07:10;19.30;99.90
13998;DHT22;7074;51.508;7.018;2023-09-07T03:09:37;19.30;99.90
13998;DHT22;7074;51.508;7.018;2023-09-07T03:12:05;19.30;99.90
13998;DHT22;7074;51.508;7.018;2023-09-07T03:14:32;19.30;99.90
13998;DHT22;7074;51.508;7.018;2023-09-07T03:17:01;19.30;99.90
13998;DHT22;7074;51.508;7.018;2023-09-07T03:19:29;19.20;99.90
13998;DHT22;7074;51.508;7.018;2023-09-07T03:21:57;19.30;99.90
13998;DHT22;7074;51.508;7.018;2023-09-07T03:24:27;19.30;99.90
13998;DHT22;7074;51.508;7.018;2023-09-07T03:26:54;19.30;99.90
13998;DHT22;7074;51.508;7.018;2023-09-07T03:29:22;19.30;99.90
13998;DHT22;7074;51.508;7.018;2023-09-07T03:31:49;19.20;99.90
13998;DHT22;7074;51.508;7.018;2023-09-07T03:34:16;19.10;99.90
13998;DHT22;7074;51.508;7.018;2023-09-07T03:36:43;19.20;99.90
13998;DHT22;7074;51.508;7.018;2023-09-07T03:39:10;19.10;99.90
13998;DHT22;7074;51.508;7.018;2023-09-07T03:41:39;19.10;99.90
13998;DHT22;7074;51.508;7.018;2023-09-07T03:44:06;19.10;99.90
13998;DHT22;7074;51.508;7.018;2023-09-07T03:46:33;19.10;99.90
13998;DHT22;7074;51.508;7.018;2023-09-07T03:49:00;19.10;99.90
13998;DHT22;7074;51.508;7.018;2023-09-07T03:51:27;19.10;99.90
13998;DHT22;7074;51.508;7.018;2023-09-07T03:53:55;19.00;99.90
13998;DHT22;7074;51.508;7.018;2023-09-07T03:56:22;18.90;99.90
13998;DHT22;7074;51.508;7.018;2023-09-07T03:58:50;18.90;99.90
13998;DHT22;7074;51.508;7.018;2023-09-07T04:01:17;18.90;99.90
13998;DHT22;7074;51.508;7.018;2023-09-07T04:03:44;18.90;99.90
13998;DHT22;7074;51.508;7.018;2023-09-07T04:06:12;18.80;99.90
13998;DHT22;7074;51.508;7.018;2023-09-07T04:08:39;18.80;99.90
13998;DHT22;7074;51.508;7.018;2023-09-07T04:11:06;18.80;99.90
13998;DHT22;7074;51.508;7.018;2023-09-07T04:13:35;18.70;99.90
13998;DHT22;7074;51.508;7.018;2023-09-07T04:16:04;18.80;99.90
13998;DHT22;7074;51.508;7.018;2023-09-07T04:18:31;18.80;99.90
13998;DHT22;7074;51.508;7.018;2023-09-07T04:21:05;18.80;99.90
13998;DHT22;7074;51.508;7.018;2023-09-07T04:23:32;18.80;99.90
13998;DHT22;7074;51.508;7.018;2023-09-07T04:26:07;18.80;99.90
13998;DHT22;7074;51.508;7.018;2023-09-07T04:28:35;18.80;99.90
13998;DHT22;7074;51.508;7.018;2023-09-07T04:31:05;18.80;99.90
13998;DHT22;7074;51.508;7.018;2023-09-07T04:33:33;18.80;99.90
13998;DHT22;7074;51.508;7.018;2023-09-07T04:36:07;18.80;99.90
13998;DHT22;7074;51.508;7.018;2023-09-07T04:38:35;18.80;99.90
13998;DHT22;7074;51.508;7.018;2023-09-07T04:41:06;18.80;99.90
13998;DHT22;7074;51.508;7.018;2023-09-07T04:43:34;18.80;99.90
13998;DHT22;7074;51.508;7.018;2023-09-07T04:46:02;18.80;99.90
13998;DHT22;7074;51.508;7.018;2023-09-07T04:48:30;18.80;99.90
13998;DHT22;7074;51.508;7.018;2023-09-07T04:50:58;18.70;99.90
13998;DHT22;7074;51.508;7.018;2023-09-07T04:53:27;18.70;99.90
13998;DHT22;7074;51.508;7.018;2023-09-07T04:55:54;18.70;99.90
13998;DHT22;7074;51.508;7.018;2023-09-07T04:58:21;18.70;99.90
13998;DHT22;7074;51.508;7.018;2023-09-07T05:00:48;18.60;99.90
13998;DHT22;7074;51.508;7.018;2023-09-07T05:03:16;18.70;99.90
13998;DHT22;7074;51.508;7.018;2023-09-07T05:05:50;18.70;99.90
13998;DHT22;7074;51.508;7.018;2023-09-07T05:08:17;18.70;99.90
13998;DHT22;7074;51.508;7.018;2023-09-07T05:10:44;18.60;99.90
13998;DHT22;7074;51.508;7.018;2023-09-07T05:13:11;18.60;99.90
13998;DHT22;7074;51.508;7.018;2023-09-07T05:15:47;18.60;99.90
13998;DHT22;7074;51.508;7.018;2023-09-07T05:18:16;18.60;99.90
13998;DHT22;7074;51.508;7.018;2023-09-07T05:20:44;18.70;99.90
13998;DHT22;7074;51.508;7.018;2023-09-07T05:23:12;18.70;99.90
13998;DHT22;7074;51.508;7.018;2023-09-07T05:25:44;18.70;99.90
13998;DHT22;7074;51.508;7.018;2023-09-07T05:28:13;18.70;99.90
13998;DHT22;7074;51.508;7.018;2023-09-07T05:30:41;18.70;99.90
13998;DHT22;7074;51.508;7.018;2023-09-07T05:33:09;18.70;99.90
13998;DHT22;7074;51.508;7.018;2023-09-07T05:35:37;18.80;99.90
13998;DHT22;7074;51.508;7.018;2023-09-07T05:38:06;18.80;99.90
13998;DHT22;7074;51.508;7.018;2023-09-07T05:40:34;18.80;99.90
13998;DHT22;7074;51.508;7.018;2023-09-07T05:43:01;18.80;99.90
13998;DHT22;7074;51.508;7.018;2023-09-07T05:45:30;18.90;99.90
13998;DHT22;7074;51.508;7.018;2023-09-07T05:47:57;18.90;99.90
13998;DHT22;7074;51.508;7.018;2023-09-07T05:50:25;19.00;99.90
13998;DHT22;7074;51.508;7.018;2023-09-07T05:52:52;19.10;99.90
13998;DHT22;7074;51.508;7.018;2023-09-07T05:55:21;19.10;99.90
13998;DHT22;7074;51.508;7.018;2023-09-07T05:57:49;19.20;99.90
13998;DHT22;7074;51.508;7.018;2023-09-07T06:00:16;19.20;99.90
13998;DHT22;7074;51.508;7.018;2023-09-07T06:02:45;19.30;99.90
13998;DHT22;7074;51.508;7.018;2023-09-07T06:05:13;19.30;99.90
13998;DHT22;7074;51.508;7.018;2023-09-07T06:07:40;19.40;99.90
13998;DHT22;7074;51.508;7.018;2023-09-07T06:10:09;19.50;99.90
13998;DHT22;7074;51.508;7.018;2023-09-07T06:12:37;19.50;99.90
13998;DHT22;7074;51.508;7.018;2023-09-07T06:15:06;19.60;99.90
13998;DHT22;7074;51.508;7.018;2023-09-07T06:17:33;19.70;99.90
13998;DHT22;7074;51.508;7.018;2023-09-07T06:20:01;19.90;99.90
13998;DHT22;7074;51.508;7.018;2023-09-07T06:22:29;19.90;99.90
13998;DHT22;7074;51.508;7.018;2023-09-07T06:24:56;20.00;99.90
13998;DHT22;7074;51.508;7.018;2023-09-07T06:27:23;20.10;99.90
13998;DHT22;7074;51.508;7.018;2023-09-07T06:29:52;20.20;99.90
13998;DHT22;7074;51.508;7.018;2023-09-07T06:32:19;20.20;99.90
13998;DHT22;7074;51.508;7.018;2023-09-07T06:34:47;20.30;99.90
13998;DHT22;7074;51.508;7.018;2023-09-07T06:37:14;20.40;99.90
13998;DHT22;7074;51.508;7.018;2023-09-07T06:39:41;20.50;99.90
13998;DHT22;7074;51.508;7.018;2023-09-07T06:42:09;20.60;99.90
13998;DHT22;7074;51.508;7.018;2023-09-07T06:44:43;20.80;99.90
13998;DHT22;7074;51.508;7.018;2023-09-07T06:47:12;20.80;99.90
13998;DHT22;7074;51.508;7.018;2023-09-07T06:49:40;20.90;99.90
13998;DHT22;7074;51.508;7.018;2023-09-07T06:52:08;21.00;99.90
13998;DHT22;7074;51.508;7.018;2023-09-07T06:54:37;21.20;99.90
13998;DHT22;7074;51.508;7.018;2023-09-07T06:57:06;21.30;99.90
13998;DHT22;7074;51.508;7.018;2023-09-07T06:59:34;21.30;99.90
13998;DHT22;7074;51.508;7.018;2023-09-07T07:02:01;21.40;99.90
13998;DHT22;7074;51.508;7.018;2023-09-07T07:04:32;21.40;99.90
13998;DHT22;7074;51.508;7.018;2023-09-07T07:07:01;21.60;99.90
13998;DHT22;7074;51.508;7.018;2023-09-07T07:09:30;21.70;99.90
13998;DHT22;7074;51.508;7.018;2023-09-07T07:11:59;21.80;99.90
13998;DHT22;7074;51.508;7.018;2023-09-07T07:14:27;22.00;99.90
13998;DHT22;7074;51.508;7.018;2023-09-07T07:16:55;22.00;99.90
13998;DHT22;7074;51.508;7.018;2023-09-07T07:19:22;22.10;99.90
13998;DHT22;7074;51.508;7.018;2023-09-07T07:21:52;22.30;99.90
13998;DHT22;7074;51.508;7.018;2023-09-07T07:24:20;22.40;99.90
13998;DHT22;7074;51.508;7.018;2023-09-07T07:26:47;22.40;99.90
13998;DHT22;7074;51.508;7.018;2023-09-07T07:29:14;22.50;99.90
13998;DHT22;7074;51.508;7.018;2023-09-07T07:31:41;22.50;99.90
13998;DHT22;7074;51.508;7.018;2023-09-07T07:34:08;22.60;99.90
13998;DHT22;7074;51.508;7.018;2023-09-07T07:36:35;22.80;99.90
13998;DHT22;7074;51.508;7.018;2023-09-07T07:39:06;23.00;99.90
13998;DHT22;7074;51.508;7.018;2023-09-07T07:41:34;23.00;99.90
13998;DHT22;7074;51.508;7.018;2023-09-07T07:44:01;23.10;99.90
13998;DHT22;7074;51.508;7.018;2023-09-07T07:46:29;23.20;99.90
13998;DHT22;7074;51.508;7.018;2023-09-07T07:48:56;23.30;99.90
13998;DHT22;7074;51.508;7.018;2023-09-07T07:51:23;23.40;99.90
13998;DHT22;7074;51.508;7.018;2023-09-07T07:53:51;23.40;99.90
13998;DHT22;7074;51.508;7.018;2023-09-07T07:56:21;23.70;99.90
13998;DHT22;7074;51.508;7.018;2023-09-07T07:58:51;23.80;99.90
13998;DHT22;7074;51.508;7.018;2023-09-07T08:01:19;23.80;99.90
13998;DHT22;7074;51.508;7.018;2023-09-07T08:03:48;23.90;99.90
13998;DHT22;7074;51.508;7.018;2023-09-07T08:06:15;24.00;99.90
13998;DHT22;7074;51.508;7.018;2023-09-07T08:08:43;24.00;99.90
13998;DHT22;7074;51.508;7.018;2023-09-07T08:11:10;24.10;99.90
13998;DHT22;7074;51.508;7.018;2023-09-07T08:13:40;24.20;99.90
13998;DHT22;7074;51.508;7.018;2023-09-07T08:16:10;24.30;99.90
13998;DHT22;7074;51.508;7.018;2023-09-07T08:18:37;24.40;99.90
13998;DHT22;7074;51.508;7.018;2023-09-07T08:21:06;24.50;99.90
13998;DHT22;7074;51.508;7.018;2023-09-07T08:23:33;24.70;99.90
13998;DHT22;7074;51.508;7.018;2023-09-07T08:26:00;24.80;99.90
13998;DHT22;7074;51.508;7.018;2023-09-07T08:28:28;24.90;99.90
13998;DHT22;7074;51.508;7.018;2023-09-07T08:30:57;25.10;99.90
13998;DHT22;7074;51.508;7.018;2023-09-07T08:33:24;25.20;99.90
13998;DHT22;7074;51.508;7.018;2023-09-07T08:35:55;25.30;99.90
13998;DHT22;7074;51.508;7.018;2023-09-07T08:38:23;25.40;99.90
13998;DHT22;7074;51.508;7.018;2023-09-07T08:40:53;25.50;99.90
13998;DHT22;7074;51.508;7.018;2023-09-07T08:43:21;25.60;99.90
13998;DHT22;7074;51.508;7.018;2023-09-07T08:45:51;25.80;99.90
13998;DHT22;7074;51.508;7.018;2023-09-07T08:48:26;25.90;99.90
13998;DHT22;7074;51.508;7.018;2023-09-07T08:50:55;26.00;99.90
13998;DHT22;7074;51.508;7.018;2023-09-07T08:53:23;26.10;99.90
13998;DHT22;7074;51.508;7.018;2023-09-07T08:55:51;26.20;99.90
13998;DHT22;7074;51.508;7.018;2023-09-07T08:58:18;26.30;99.90
13998;DHT22;7074;51.508;7.018;2023-09-07T09:00:46;26.40;99.90
13998;DHT22;7074;51.508;7.018;2023-09-07T09:03:15;26.40;99.90
13998;DHT22;7074;51.508;7.018;2023-09-07T09:05:45;26.50;99.90
13998;DHT22;7074;51.508;7.018;2023-09-07T09:08:13;26.60;99.90
13998;DHT22;7074;51.508;7.018;2023-09-07T09:10:40;26.90;99.90
13998;DHT22;7074;51.508;7.018;2023-09-07T09:13:07;27.00;99.90
13998;DHT22;7074;51.508;7.018;2023-09-07T09:15:36;27.00;99.90
13998;DHT22;7074;51.508;7.018;2023-09-07T09:18:11;27.20;99.90
13998;DHT22;7074;51.508;7.018;2023-09-07T09:20:39;27.30;99.90
13998;DHT22;7074;51.508;7.018;2023-09-07T09:23:07;27.40;99.90
13998;DHT22;7074;51.508;7.018;2023-09-07T09:25:34;27.40;99.80
13998;DHT22;7074;51.508;7.018;2023-09-07T09:28:02;27.60;99.90
13998;DHT22;7074;51.508;7.018;2023-09-07T09:30:29;27.70;99.90
13998;DHT22;7074;51.508;7.018;2023-09-07T09:32:56;27.80;98.80
13998;DHT22;7074;51.508;7.018;2023-09-07T09:35:26;27.80;98.10
13998;DHT22;7074;51.508;7.018;2023-09-07T09:37:53;27.90;98.40
13998;DHT22;7074;51.508;7.018;2023-09-07T09:40:22;28.00;97.50
13998;DHT22;7074;51.508;7.018;2023-09-07T09:42:52;28.10;96.80
13998;DHT22;7074;51.508;7.018;2023-09-07T09:45:21;28.10;96.60
13998;DHT22;7074;51.508;7.018;2023-09-07T09:47:50;28.10;94.50
13998;DHT22;7074;51.508;7.018;2023-09-07T09:50:18;28.10;93.10
13998;DHT22;7074;51.508;7.018;2023-09-07T09:52:48;28.30;92.90
13998;DHT22;7074;51.508;7.018;2023-09-07T09:55:15;28.40;92.80
13998;DHT22;7074;51.508;7.018;2023-09-07T09:57:44;28.40;92.10
13998;DHT22;7074;51.508;7.018;2023-09-07T10:00:12;28.50;92.90
13998;DHT22;7074;51.508;7.018;2023-09-07T10:02:57;28.60;92.10
13998;DHT22;7074;51.508;7.018;2023-09-07T10:05:26;28.60;91.70
13998;DHT22;7074;51.508;7.018;2023-09-07T10:08:00;28.70;92.10
13998;DHT22;7074;51.508;7.018;2023-09-07T10:10:33;28.90;92.10
13998;DHT22;7074;51.508;7.018;2023-09-07T10:13:03;28.90;91.90
13998;DHT22;7074;51.508;7.018;2023-09-07T10:15:31;29.00;92.00
13998;DHT22;7074;51.508;7.018;2023-09-07T10:18:10;29.10;92.40
13998;DHT22;7074;51.508;7.018;2023-09-07T10:20:54;29.00;91.00
13998;DHT22;7074;51.508;7.018;2023-09-07T10:23:22;29.10;90.70
13998;DHT22;7074;51.508;7.018;2023-09-07T10:25:50;29.10;91.00
13998;DHT22;7074;51.508;7.018;2023-09-07T10:28:20;29.30;90.50
13998;DHT22;7074;51.508;7.018;2023-09-07T10:31:01;29.40;90.90
13998;DHT22;7074;51.508;7.018;2023-09-07T10:33:30;29.50;90.20
13998;DHT22;7074;51.508;7.018;2023-09-07T10:35:58;29.50;90.90
13998;DHT22;7074;51.508;7.018;2023-09-07T10:38:25;29.60;89.70
13998;DHT22;7074;51.508;7.018;2023-09-07T10:40:56;29.40;90.50
13998;DHT22;7074;51.508;7.018;2023-09-07T10:43:28;29.60;90.90
13998;DHT22;7074;51.508;7.018;2023-09-07T10:45:56;29.60;90.40
13998;DHT22;7074;51.508;7.018;2023-09-07T10:48:26;29.80;91.10
13998;DHT22;7074;51.508;7.018;2023-09-07T10:50:53;30.00;90.60
13998;DHT22;7074;51.508;7.018;2023-09-07T10:53:28;30.00;90.20
13998;DHT22;7074;51.508;7.018;2023-09-07T10:55:57;30.00;88.30
13998;DHT22;7074;51.508;7.018;2023-09-07T10:58:27;30.00;90.10
13998;DHT22;7074;51.508;7.018;2023-09-07T11:00:55;30.10;89.40
13998;DHT22;7074;51.508;7.018;2023-09-07T11:03:22;30.20;88.80
13998;DHT22;7074;51.508;7.018;2023-09-07T11:05:51;30.10;88.20
13998;DHT22;7074;51.508;7.018;2023-09-07T11:08:20;30.10;86.40
13998;DHT22;7074;51.508;7.018;2023-09-07T11:10:47;29.90;88.60
13998;DHT22;7074;51.508;7.018;2023-09-07T11:13:16;30.10;90.00
13998;DHT22;7074;51.508;7.018;2023-09-07T11:15:45;30.10;90.00
13998;DHT22;7074;51.508;7.018;2023-09-07T11:18:12;30.20;88.50
13998;DHT22;7074;51.508;7.018;2023-09-07T11:20:39;30.40;86.40
13998;DHT22;7074;51.508;7.018;2023-09-07T11:23:06;30.50;86.10
13998;DHT22;7074;51.508;7.018;2023-09-07T11:25:35;30.60;85.70
13998;DHT22;7074;51.508;7.018;2023-09-07T11:28:03;30.60;84.90
13998;DHT22;7074;51.508;7.018;2023-09-07T11:30:31;30.80;84.10
13998;DHT22;7074;51.508;7.018;2023-09-07T11:33:05;30.50;82.50
13998;DHT22;7074;51.508;7.018;2023-09-07T11:35:32;30.60;84.40
13998;DHT22;7074;51.508;7.018;2023-09-07T11:37:59;30.80;83.20
13998;DHT22;7074;51.508;7.018;2023-09-07T11:40:27;30.80;81.20
13998;DHT22;7074;51.508;7.018;2023-09-07T11:42:54;30.80;81.50
13998;DHT22;7074;51.508;7.018;2023-09-07T11:45:21;30.80;80.40
13998;DHT22;7074;51.508;7.018;2023-09-07T11:47:48;30.90;79.70
13998;DHT22;7074;51.508;7.018;2023-09-07T11:50:18;31.00;80.50
13998;DHT22;7074;51.508;7.018;2023-09-07T11:52:46;31.00;81.50
13998;DHT22;7074;51.508;7.018;2023-09-07T11:55:14;31.20;81.50
13998;DHT22;7074;51.508;7.018;2023-09-07T11:57:41;31.20;82.00
13998;DHT22;7074;51.508;7.018;2023-09-07T12:00:09;31.20;79.20
13998;DHT22;7074;51.508;7.018;2023-09-07T12:02:39;31.20;79.80
13998;DHT22;7074;51.508;7.018;2023-09-07T12:05:07;31.20;80.30
13998;DHT22;7074;51.508;7.018;2023-09-07T12:07:36;31.20;77.80
13998;DHT22;7074;51.508;7.018;2023-09-07T12:10:04;31.20;79.10
13998;DHT22;7074;51.508;7.018;2023-09-07T12:12:36;31.20;77.70
13998;DHT22;7074;51.508;7.018;2023-09-07T12:15:03;31.40;77.00
13998;DHT22;7074;51.508;7.018;2023-09-07T12:17:31;31.40;76.70
13998;DHT22;7074;51.508;7.018;2023-09-07T12:19:58;31.20;75.70
13998;DHT22;7074;51.508;7.018;2023-09-07T12:22:25;31.30;75.30
13998;DHT22;7074;51.508;7.018;2023-09-07T12:24:54;31.10;75.20
13998;DHT22;7074;51.508;7.018;2023-09-07T12:27:21;31.30;74.40
13998;DHT22;7074;51.508;7.018;2023-09-07T12:29:48;31.50;74.10
13998;DHT22;7074;51.508;7.018;2023-09-07T12:32:16;31.50;72.60
13998;DHT22;7074;51.508;7.018;2023-09-07T12:34:43;31.70;73.20
13998;DHT22;7074;51.508;7.018;2023-09-07T12:37:10;31.70;70.90
13998;DHT22;7074;51.508;7.018;2023-09-07T12:39:37;31.80;71.30
13998;DHT22;7074;51.508;7.018;2023-09-07T12:42:06;31.90;65.60
13998;DHT22;7074;51.508;7.018;2023-09-07T12:44:33;31.60;64.60
13998;DHT22;7074;51.508;7.018;2023-09-07T12:47:00;31.60;66.20
13998;DHT22;7074;51.508;7.018;2023-09-07T12:49:27;31.80;64.70
13998;DHT22;7074;51.508;7.018;2023-09-07T12:51:54;31.90;65.40
13998;DHT22;7074;51.508;7.018;2023-09-07T12:54:21;32.10;66.10
13998;DHT22;7074;51.508;7.018;2023-09-07T12:56:49;32.20;61.80
13998;DHT22;7074;51.508;7.018;2023-09-07T12:59:19;32.20;58.20
13998;DHT22;7074;51.508;7.018;2023-09-07T13:01:46;32.20;60.40
13998;DHT22;7074;51.508;7.018;2023-09-07T13:04:13;32.30;60.00
13998;DHT22;7074;51.508;7.018;2023-09-07T13:06:40;32.40;59.80
13998;DHT22;7074;51.508;7.018;2023-09-07T13:09:08;32.50;60.60
13998;DHT22;7074;51.508;7.018;2023-09-07T13:11:35;32.60;59.40
13998;DHT22;7074;51.508;7.018;2023-09-07T13:14:02;32.70;59.20
13998;DHT22;7074;51.508;7.018;2023-09-07T13:16:30;32.80;58.00
13998;DHT22;7074;51.508;7.018;2023-09-07T13:18:58;32.80;57.50
13998;DHT22;7074;51.508;7.018;2023-09-07T13:21:25;32.70;57.50
13998;DHT22;7074;51.508;7.018;2023-09-07T13:23:53;32.80;59.00
13998;DHT22;7074;51.508;7.018;2023-09-07T13:26:20;33.00;59.50
13998;DHT22;7074;51.508;7.018;2023-09-07T13:28:47;33.10;59.60
13998;DHT22;7074;51.508;7.018;2023-09-07T13:31:14;32.90;58.60
13998;DHT22;7074;51.508;7.018;2023-09-07T13:33:43;32.90;59.10
13998;DHT22;7074;51.508;7.018;2023-09-07T13:36:10;33.00;58.70
13998;DHT22;7074;51.508;7.018;2023-09-07T13:38:37;33.00;57.50
13998;DHT22;7074;51.508;7.018;2023-09-07T13:41:04;33.00;58.10
13998;DHT22;7074;51.508;7.018;2023-09-07T13:43:31;33.10;59.20
13998;DHT22;7074;51.508;7.018;2023-09-07T13:45:58;33.30;58.70
13998;DHT22;7074;51.508;7.018;2023-09-07T13:48:25;33.30;57.00
13998;DHT22;7074;51.508;7.018;2023-09-07T13:50:54;33.30;57.10
13998;DHT22;7074;51.508;7.018;2023-09-07T13:53:21;33.10;56.40
13998;DHT22;7074;51.508;7.018;2023-09-07T13:55:48;33.10;56.40
13998;DHT22;7074;51.508;7.018;2023-09-07T13:58:15;33.30;57.10
13998;DHT22;7074;51.508;7.018;2023-09-07T14:00:43;33.00;57.50
13998;DHT22;7074;51.508;7.018;2023-09-07T14:03:10;33.00;59.20
13998;DHT22;7074;51.508;7.018;2023-09-07T14:05:37;33.20;59.80
13998;DHT22;7074;51.508;7.018;2023-09-07T14:08:05;33.30;60.70
13998;DHT22;7074;51.508;7.018;2023-09-07T14:10:33;33.30;61.30
13998;DHT22;7074;51.508;7.018;2023-09-07T14:13:00;33.30;61.60
13998;DHT22;7074;51.508;7.018;2023-09-07T14:15:27;33.40;62.10
13998;DHT22;7074;51.508;7.018;2023-09-07T14:17:55;33.40;62.40
13998;DHT22;7074;51.508;7.018;2023-09-07T14:20:23;33.20;61.60
13998;DHT22;7074;51.508;7.018;2023-09-07T14:22:51;33.10;61.40
13998;DHT22;7074;51.508;7.018;2023-09-07T14:25:20;32.70;63.20
13998;DHT22;7074;51.508;7.018;2023-09-07T14:27:47;32.80;64.70
13998;DHT22;7074;51.508;7.018;2023-09-07T14:30:15;32.80;64.20
13998;DHT22;7074;51.508;7.018;2023-09-07T14:32:42;32.80;65.60
13998;DHT22;7074;51.508;7.018;2023-09-07T14:35:09;32.80;64.20
13998;DHT22;7074;51.508;7.018;2023-09-07T14:37:37;32.70;65.20
13998;DHT22;7074;51.508;7.018;2023-09-07T14:40:05;32.60;64.90
13998;DHT22;7074;51.508;7.018;2023-09-07T14:42:34;32.50;65.30
13998;DHT22;7074;51.508;7.018;2023-09-07T14:45:02;32.50;66.00
13998;DHT22;7074;51.508;7.018;2023-09-07T14:47:30;32.50;65.50
13998;DHT22;7074;51.508;7.018;2023-09-07T14:49:57;32.30;65.30
13998;DHT22;7074;51.508;7.018;2023-09-07T14:52:24;32.30;66.40
13998;DHT22;7074;51.508;7.018;2023-09-07T14:54:51;32.20;66.70
13998;DHT22;7074;51.508;7.018;2023-09-07T14:57:18;32.20;65.60
13998;DHT22;7074;51.508;7.018;2023-09-07T14:59:47;32.20;65.80
13998;DHT22;7074;51.508;7.018;2023-09-07T15:02:14;32.00;64.20
13998;DHT22;7074;51.508;7.018;2023-09-07T15:04:41;31.90;65.00
13998;DHT22;7074;51.508;7.018;2023-09-07T15:07:10;31.90;65.90
13998;DHT22;7074;51.508;7.018;2023-09-07T15:09:37;31.90;64.30
13998;DHT22;7074;51.508;7.018;2023-09-07T15:12:05;31.80;65.20
13998;DHT22;7074;51.508;7.018;2023-09-07T15:14:32;31.90;64.80
13998;DHT22;7074;51.508;7.018;2023-09-07T15:17:01;31.90;66.10
13998;DHT22;7074;51.508;7.018;2023-09-07T15:19:28;31.70;65.00
13998;DHT22;7074;51.508;7.018;2023-09-07T15:21:56;31.80;65.60
13998;DHT22;7074;51.508;7.018;2023-09-07T15:24:23;31.80;66.40
13998;DHT22;7074;51.508;7.018;2023-09-07T15:26:51;31.80;65.30
13998;DHT22;7074;51.508;7.018;2023-09-07T15:29:18;31.80;64.20
13998;DHT22;7074;51.508;7.018;2023-09-07T15:31:46;31.80;64.00
13998;DHT22;7074;51.508;7.018;2023-09-07T15:34:14;31.80;63.90
13998;DHT22;7074;51.508;7.018;2023-09-07T15:36:41;31.70;64.10
13998;DHT22;7074;51.508;7.018;2023-09-07T15:39:09;31.70;64.00
13998;DHT22;7074;51.508;7.018;2023-09-07T15:41:36;31.60;64.30
13998;DHT22;7074;51.508;7.018;2023-09-07T15:44:04;31.60;63.50
13998;DHT22;7074;51.508;7.018;2023-09-07T15:46:31;31.60;62.60
13998;DHT22;7074;51.508;7.018;2023-09-07T15:48:58;31.50;62.90
13998;DHT22;7074;51.508;7.018;2023-09-07T15:51:27;31.50;62.40